Terminal Aerodrome Forecast
Issued by NWS Green Bay, WI

Home | Current Version | Previous Version | Graphics & Text | Print | Product List | Glossary Off
Versions: 1 2 3 4 5 6 7 8 9 10 11 12 13 14 15 16 17 18 19

000
FTUS43 KGRB 172332
TAFGRB
TAF
KGRB 172332Z 1800/1824 33005KT 3SM BR OVC003
     FM180100 32005KT 5SM BR OVC006
     FM180300 27004KT 5SM BR SCT007 BKN015
     FM180600 26005KT 3SM BR SCT015 OVC025
     FM181100 23008KT 2SM BR OVC006
     FM181800 22010KT P6SM SCT010=

USA.gov is the U.S. government's official web portal to all federal, state and local government web resources and services.